sensor_id;sensor_type;location;lat;lon;timestamp;P1;durP1;ratioP1;P2;durP2;ratioP2
16407;SDS011;8313;49.894;8.084;2022-08-26T00:00:54;5.80;;;5.20;;
16407;SDS011;8313;49.894;8.084;2022-08-26T00:03:20;5.60;;;4.73;;
16407;SDS011;8313;49.894;8.084;2022-08-26T00:05:47;6.87;;;6.17;;
16407;SDS011;8313;49.894;8.084;2022-08-26T00:08:16;6.17;;;5.10;;
16407;SDS011;8313;49.894;8.084;2022-08-26T00:10:43;7.80;;;5.77;;
16407;SDS011;8313;49.894;8.084;2022-08-26T00:13:09;4.77;;;4.37;;
16407;SDS011;8313;49.894;8.084;2022-08-26T00:15:36;6.43;;;5.83;;
16407;SDS011;8313;49.894;8.084;2022-08-26T00:18:03;6.63;;;5.83;;
16407;SDS011;8313;49.894;8.084;2022-08-26T00:20:30;6.27;;;5.17;;
16407;SDS011;8313;49.894;8.084;2022-08-26T00:22:57;6.50;;;5.90;;
16407;SDS011;8313;49.894;8.084;2022-08-26T00:25:24;5.50;;;5.00;;
16407;SDS011;8313;49.894;8.084;2022-08-26T00:27:50;5.37;;;4.87;;
16407;SDS011;8313;49.894;8.084;2022-08-26T00:30:17;5.73;;;5.20;;
16407;SDS011;8313;49.894;8.084;2022-08-26T00:32:47;9.03;;;4.63;;
16407;SDS011;8313;49.894;8.084;2022-08-26T00:35:13;6.10;;;5.30;;
16407;SDS011;8313;49.894;8.084;2022-08-26T00:37:39;6.20;;;5.60;;
16407;SDS011;8313;49.894;8.084;2022-08-26T00:40:07;5.83;;;5.23;;
16407;SDS011;8313;49.894;8.084;2022-08-26T00:42:36;7.40;;;5.30;;
16407;SDS011;8313;49.894;8.084;2022-08-26T00:45:02;6.97;;;5.80;;
16407;SDS011;8313;49.894;8.084;2022-08-26T00:47:30;9.13;;;6.20;;
16407;SDS011;8313;49.894;8.084;2022-08-26T00:50:07;5.70;;;5.20;;
16407;SDS011;8313;49.894;8.084;2022-08-26T00:52:35;5.70;;;5.20;;
16407;SDS011;8313;49.894;8.084;2022-08-26T00:55:10;6.10;;;5.60;;
16407;SDS011;8313;49.894;8.084;2022-08-26T00:57:41;6.83;;;5.77;;
16407;SDS011;8313;49.894;8.084;2022-08-26T01:00:10;7.40;;;6.50;;
16407;SDS011;8313;49.894;8.084;2022-08-26T01:02:38;6.47;;;5.80;;
16407;SDS011;8313;49.894;8.084;2022-08-26T01:05:05;5.40;;;4.90;;
16407;SDS011;8313;49.894;8.084;2022-08-26T01:07:32;6.60;;;5.00;;
16407;SDS011;8313;49.894;8.084;2022-08-26T01:09:59;5.80;;;5.23;;
16407;SDS011;8313;49.894;8.084;2022-08-26T01:12:27;5.93;;;5.33;;
16407;SDS011;8313;49.894;8.084;2022-08-26T01:14:56;6.90;;;5.37;;
16407;SDS011;8313;49.894;8.084;2022-08-26T01:17:22;7.67;;;5.30;;
16407;SDS011;8313;49.894;8.084;2022-08-26T01:19:49;5.90;;;5.20;;
16407;SDS011;8313;49.894;8.084;2022-08-26T01:22:24;6.43;;;5.73;;
16407;SDS011;8313;49.894;8.084;2022-08-26T01:24:56;6.93;;;5.47;;
16407;SDS011;8313;49.894;8.084;2022-08-26T01:27:24;6.87;;;5.77;;
16407;SDS011;8313;49.894;8.084;2022-08-26T01:29:55;6.23;;;5.50;;
16407;SDS011;8313;49.894;8.084;2022-08-26T01:32:22;5.87;;;5.27;;
16407;SDS011;8313;49.894;8.084;2022-08-26T01:34:48;6.00;;;5.40;;
16407;SDS011;8313;49.894;8.084;2022-08-26T01:37:16;5.93;;;5.37;;
16407;SDS011;8313;49.894;8.084;2022-08-26T01:39:46;6.20;;;4.80;;
16407;SDS011;8313;49.894;8.084;2022-08-26T01:42:14;5.30;;;4.80;;
16407;SDS011;8313;49.894;8.084;2022-08-26T01:44:45;5.30;;;4.77;;
16407;SDS011;8313;49.894;8.084;2022-08-26T01:47:26;5.97;;;4.80;;
16407;SDS011;8313;49.894;8.084;2022-08-26T01:49:54;6.40;;;5.57;;
16407;SDS011;8313;49.894;8.084;2022-08-26T01:52:25;6.37;;;5.03;;
16407;SDS011;8313;49.894;8.084;2022-08-26T01:54:52;6.00;;;5.10;;
16407;SDS011;8313;49.894;8.084;2022-08-26T01:57:21;5.70;;;5.00;;
16407;SDS011;8313;49.894;8.084;2022-08-26T01:59:48;8.37;;;5.87;;
16407;SDS011;8313;49.894;8.084;2022-08-26T02:02:15;7.10;;;5.20;;
16407;SDS011;8313;49.894;8.084;2022-08-26T02:04:52;5.10;;;4.60;;
16407;SDS011;8313;49.894;8.084;2022-08-26T02:07:22;5.00;;;4.50;;
16407;SDS011;8313;49.894;8.084;2022-08-26T02:09:48;5.27;;;4.77;;
16407;SDS011;8313;49.894;8.084;2022-08-26T02:12:15;5.50;;;5.00;;
16407;SDS011;8313;49.894;8.084;2022-08-26T02:14:43;8.17;;;5.40;;
16407;SDS011;8313;49.894;8.084;2022-08-26T02:17:14;5.73;;;4.90;;
16407;SDS011;8313;49.894;8.084;2022-08-26T02:19:44;5.10;;;4.70;;
16407;SDS011;8313;49.894;8.084;2022-08-26T02:22:12;6.30;;;5.70;;
16407;SDS011;8313;49.894;8.084;2022-08-26T02:24:52;5.53;;;5.03;;
16407;SDS011;8313;49.894;8.084;2022-08-26T02:27:24;5.47;;;4.97;;
16407;SDS011;8313;49.894;8.084;2022-08-26T02:32:44;4.73;;;4.33;;
16407;SDS011;8313;49.894;8.084;2022-08-26T02:35:11;9.20;;;5.30;;
16407;SDS011;8313;49.894;8.084;2022-08-26T02:37:38;7.87;;;5.47;;
16407;SDS011;8313;49.894;8.084;2022-08-26T02:40:05;7.00;;;5.13;;
16407;SDS011;8313;49.894;8.084;2022-08-26T02:42:31;5.67;;;4.90;;
16407;SDS011;8313;49.894;8.084;2022-08-26T02:44:57;6.20;;;5.20;;
16407;SDS011;8313;49.894;8.084;2022-08-26T02:47:23;5.33;;;4.83;;
16407;SDS011;8313;49.894;8.084;2022-08-26T02:49:49;6.53;;;5.93;;
16407;SDS011;8313;49.894;8.084;2022-08-26T02:52:16;5.30;;;4.90;;
16407;SDS011;8313;49.894;8.084;2022-08-26T02:54:42;4.73;;;4.33;;
16407;SDS011;8313;49.894;8.084;2022-08-26T02:57:08;4.57;;;4.10;;
16407;SDS011;8313;49.894;8.084;2022-08-26T02:59:35;5.63;;;5.13;;
16407;SDS011;8313;49.894;8.084;2022-08-26T03:02:03;7.70;;;5.47;;
16407;SDS011;8313;49.894;8.084;2022-08-26T03:04:29;10.10;;;5.57;;
16407;SDS011;8313;49.894;8.084;2022-08-26T03:06:55;5.80;;;5.23;;
16407;SDS011;8313;49.894;8.084;2022-08-26T03:09:21;5.80;;;5.23;;
16407;SDS011;8313;49.894;8.084;2022-08-26T03:11:47;5.93;;;5.33;;
16407;SDS011;8313;49.894;8.084;2022-08-26T03:14:13;5.57;;;5.07;;
16407;SDS011;8313;49.894;8.084;2022-08-26T03:16:39;6.40;;;5.00;;
16407;SDS011;8313;49.894;8.084;2022-08-26T03:19:05;4.73;;;4.20;;
16407;SDS011;8313;49.894;8.084;2022-08-26T03:21:33;5.50;;;5.03;;
16407;SDS011;8313;49.894;8.084;2022-08-26T03:24:00;5.60;;;5.10;;
16407;SDS011;8313;49.894;8.084;2022-08-26T03:26:26;6.07;;;5.40;;
16407;SDS011;8313;49.894;8.084;2022-08-26T03:28:52;7.17;;;4.70;;
16407;SDS011;8313;49.894;8.084;2022-08-26T03:31:36;5.50;;;4.77;;
16407;SDS011;8313;49.894;8.084;2022-08-26T03:34:02;5.33;;;4.83;;
16407;SDS011;8313;49.894;8.084;2022-08-26T03:36:28;6.23;;;4.80;;
16407;SDS011;8313;49.894;8.084;2022-08-26T03:38:54;5.13;;;4.63;;
16407;SDS011;8313;49.894;8.084;2022-08-26T03:41:20;5.33;;;4.83;;
16407;SDS011;8313;49.894;8.084;2022-08-26T03:43:46;6.23;;;5.07;;
16407;SDS011;8313;49.894;8.084;2022-08-26T03:46:14;6.57;;;4.83;;
16407;SDS011;8313;49.894;8.084;2022-08-26T03:48:41;6.00;;;5.23;;
16407;SDS011;8313;49.894;8.084;2022-08-26T03:51:11;6.10;;;5.07;;
16407;SDS011;8313;49.894;8.084;2022-08-26T03:53:39;6.27;;;5.40;;
16407;SDS011;8313;49.894;8.084;2022-08-26T03:56:05;5.60;;;4.83;;
16407;SDS011;8313;49.894;8.084;2022-08-26T03:58:31;7.60;;;5.70;;
16407;SDS011;8313;49.894;8.084;2022-08-26T04:00:57;5.77;;;5.23;;
16407;SDS011;8313;49.894;8.084;2022-08-26T04:03:23;6.30;;;5.10;;
16407;SDS011;8313;49.894;8.084;2022-08-26T04:06:10;5.97;;;5.47;;
16407;SDS011;8313;49.894;8.084;2022-08-26T04:08:36;5.73;;;4.90;;
16407;SDS011;8313;49.894;8.084;2022-08-26T04:11:02;6.10;;;4.67;;
16407;SDS011;8313;49.894;8.084;2022-08-26T04:13:28;4.87;;;4.37;;
16407;SDS011;8313;49.894;8.084;2022-08-26T04:15:54;6.00;;;5.03;;
16407;SDS011;8313;49.894;8.084;2022-08-26T04:18:20;5.77;;;4.43;;
16407;SDS011;8313;49.894;8.084;2022-08-26T04:20:46;4.70;;;4.13;;
16407;SDS011;8313;49.894;8.084;2022-08-26T04:23:12;5.77;;;4.80;;
16407;SDS011;8313;49.894;8.084;2022-08-26T04:25:39;6.10;;;5.50;;
16407;SDS011;8313;49.894;8.084;2022-08-26T04:28:04;5.83;;;5.30;;
16407;SDS011;8313;49.894;8.084;2022-08-26T04:30:30;5.47;;;4.97;;
16407;SDS011;8313;49.894;8.084;2022-08-26T04:32:56;5.50;;;4.57;;
16407;SDS011;8313;49.894;8.084;2022-08-26T04:35:23;7.10;;;4.43;;
16407;SDS011;8313;49.894;8.084;2022-08-26T04:37:49;5.07;;;4.60;;
16407;SDS011;8313;49.894;8.084;2022-08-26T04:40:15;8.27;;;5.27;;
16407;SDS011;8313;49.894;8.084;2022-08-26T04:42:41;5.10;;;4.63;;
16407;SDS011;8313;49.894;8.084;2022-08-26T04:45:07;6.53;;;5.90;;
16407;SDS011;8313;49.894;8.084;2022-08-26T04:47:33;5.80;;;5.30;;
16407;SDS011;8313;49.894;8.084;2022-08-26T04:49:59;7.73;;;5.50;;
16407;SDS011;8313;49.894;8.084;2022-08-26T04:52:25;6.07;;;5.47;;
16407;SDS011;8313;49.894;8.084;2022-08-26T04:54:50;5.80;;;5.30;;
16407;SDS011;8313;49.894;8.084;2022-08-26T04:57:16;9.27;;;5.30;;
16407;SDS011;8313;49.894;8.084;2022-08-26T04:59:42;7.90;;;5.90;;
16407;SDS011;8313;49.894;8.084;2022-08-26T05:02:08;6.80;;;5.50;;
16407;SDS011;8313;49.894;8.084;2022-08-26T05:04:34;5.60;;;5.00;;
16407;SDS011;8313;49.894;8.084;2022-08-26T05:07:00;6.10;;;5.27;;
16407;SDS011;8313;49.894;8.084;2022-08-26T05:09:26;6.60;;;5.90;;
16407;SDS011;8313;49.894;8.084;2022-08-26T05:11:52;7.30;;;6.37;;
16407;SDS011;8313;49.894;8.084;2022-08-26T05:14:18;10.30;;;6.10;;
16407;SDS011;8313;49.894;8.084;2022-08-26T05:16:45;6.10;;;5.50;;
16407;SDS011;8313;49.894;8.084;2022-08-26T05:19:11;6.70;;;6.00;;
16407;SDS011;8313;49.894;8.084;2022-08-26T05:21:37;6.30;;;5.80;;
16407;SDS011;8313;49.894;8.084;2022-08-26T05:24:03;6.10;;;5.50;;
16407;SDS011;8313;49.894;8.084;2022-08-26T05:26:29;7.07;;;6.37;;
16407;SDS011;8313;49.894;8.084;2022-08-26T05:28:56;6.77;;;6.17;;
16407;SDS011;8313;49.894;8.084;2022-08-26T05:31:23;8.90;;;6.80;;
16407;SDS011;8313;49.894;8.084;2022-08-26T05:33:51;8.57;;;6.47;;
16407;SDS011;8313;49.894;8.084;2022-08-26T05:36:18;6.17;;;5.57;;
16407;SDS011;8313;49.894;8.084;2022-08-26T05:38:46;7.23;;;6.30;;
16407;SDS011;8313;49.894;8.084;2022-08-26T05:41:20;7.63;;;7.00;;
16407;SDS011;8313;49.894;8.084;2022-08-26T05:43:53;8.10;;;7.27;;
16407;SDS011;8313;49.894;8.084;2022-08-26T05:46:23;7.17;;;6.50;;
16407;SDS011;8313;49.894;8.084;2022-08-26T05:48:51;8.30;;;7.00;;
16407;SDS011;8313;49.894;8.084;2022-08-26T05:51:17;8.13;;;7.33;;
16407;SDS011;8313;49.894;8.084;2022-08-26T05:53:43;7.80;;;7.00;;
16407;SDS011;8313;49.894;8.084;2022-08-26T05:56:09;8.70;;;7.10;;
16407;SDS011;8313;49.894;8.084;2022-08-26T05:58:36;8.30;;;7.50;;
16407;SDS011;8313;49.894;8.084;2022-08-26T06:01:04;9.20;;;8.37;;
16407;SDS011;8313;49.894;8.084;2022-08-26T06:03:39;11.10;;;8.07;;
16407;SDS011;8313;49.894;8.084;2022-08-26T06:06:10;9.07;;;8.20;;
16407;SDS011;8313;49.894;8.084;2022-08-26T06:08:41;11.77;;;8.53;;
16407;SDS011;8313;49.894;8.084;2022-08-26T06:11:09;9.27;;;8.30;;
16407;SDS011;8313;49.894;8.084;2022-08-26T06:13:37;9.67;;;8.40;;
16407;SDS011;8313;49.894;8.084;2022-08-26T06:16:04;13.30;;;8.30;;
16407;SDS011;8313;49.894;8.084;2022-08-26T06:18:36;10.90;;;9.43;;
16407;SDS011;8313;49.894;8.084;2022-08-26T06:21:37;10.50;;;8.87;;
16407;SDS011;8313;49.894;8.084;2022-08-26T06:23:59;9.93;;;8.97;;
16407;SDS011;8313;49.894;8.084;2022-08-26T06:26:47;9.50;;;8.63;;
16407;SDS011;8313;49.894;8.084;2022-08-26T06:29:14;10.43;;;9.40;;
16407;SDS011;8313;49.894;8.084;2022-08-26T06:31:40;9.83;;;8.77;;
16407;SDS011;8313;49.894;8.084;2022-08-26T06:34:05;10.00;;;8.67;;
16407;SDS011;8313;49.894;8.084;2022-08-26T06:36:31;10.50;;;8.93;;
16407;SDS011;8313;49.894;8.084;2022-08-26T06:39:00;9.63;;;8.63;;
16407;SDS011;8313;49.894;8.084;2022-08-26T06:41:28;11.33;;;10.13;;
16407;SDS011;8313;49.894;8.084;2022-08-26T06:43:56;10.40;;;9.40;;
16407;SDS011;8313;49.894;8.084;2022-08-26T06:46:22;9.47;;;8.43;;
16407;SDS011;8313;49.894;8.084;2022-08-26T06:48:48;11.23;;;9.00;;
16407;SDS011;8313;49.894;8.084;2022-08-26T06:51:16;10.07;;;8.37;;
16407;SDS011;8313;49.894;8.084;2022-08-26T06:53:45;12.10;;;10.07;;
16407;SDS011;8313;49.894;8.084;2022-08-26T06:56:12;14.30;;;10.13;;
16407;SDS011;8313;49.894;8.084;2022-08-26T06:58:40;11.03;;;10.03;;
16407;SDS011;8313;49.894;8.084;2022-08-26T07:01:16;12.47;;;11.13;;
16407;SDS011;8313;49.894;8.084;2022-08-26T07:03:47;11.67;;;10.53;;
16407;SDS011;8313;49.894;8.084;2022-08-26T07:06:14;11.60;;;10.40;;
16407;SDS011;8313;49.894;8.084;2022-08-26T07:08:42;14.43;;;12.03;;
16407;SDS011;8313;49.894;8.084;2022-08-26T07:11:08;12.23;;;11.13;;
16407;SDS011;8313;49.894;8.084;2022-08-26T07:13:35;11.00;;;9.90;;
16407;SDS011;8313;49.894;8.084;2022-08-26T07:16:08;13.80;;;12.50;;
16407;SDS011;8313;49.894;8.084;2022-08-26T07:18:36;11.40;;;10.40;;
16407;SDS011;8313;49.894;8.084;2022-08-26T07:21:04;13.00;;;11.57;;
16407;SDS011;8313;49.894;8.084;2022-08-26T07:23:32;13.10;;;11.90;;
16407;SDS011;8313;49.894;8.084;2022-08-26T07:25:58;15.20;;;10.97;;
16407;SDS011;8313;49.894;8.084;2022-08-26T07:28:28;12.90;;;10.97;;
16407;SDS011;8313;49.894;8.084;2022-08-26T07:30:53;12.00;;;10.77;;
16407;SDS011;8313;49.894;8.084;2022-08-26T07:33:19;14.97;;;10.90;;
16407;SDS011;8313;49.894;8.084;2022-08-26T07:35:45;11.80;;;10.63;;
16407;SDS011;8313;49.894;8.084;2022-08-26T07:38:11;11.50;;;10.37;;
16407;SDS011;8313;49.894;8.084;2022-08-26T07:40:37;11.70;;;10.63;;
16407;SDS011;8313;49.894;8.084;2022-08-26T07:43:05;13.70;;;11.67;;
16407;SDS011;8313;49.894;8.084;2022-08-26T07:45:31;11.50;;;10.30;;
16407;SDS011;8313;49.894;8.084;2022-08-26T07:47:57;10.97;;;9.87;;
16407;SDS011;8313;49.894;8.084;2022-08-26T07:50:23;11.83;;;10.43;;
16407;SDS011;8313;49.894;8.084;2022-08-26T07:52:49;13.07;;;10.00;;
16407;SDS011;8313;49.894;8.084;2022-08-26T07:55:15;11.80;;;10.60;;
16407;SDS011;8313;49.894;8.084;2022-08-26T07:57:41;12.73;;;11.43;;
16407;SDS011;8313;49.894;8.084;2022-08-26T08:00:08;10.80;;;9.67;;
16407;SDS011;8313;49.894;8.084;2022-08-26T08:02:39;12.70;;;11.50;;
16407;SDS011;8313;49.894;8.084;2022-08-26T08:05:05;15.43;;;11.60;;
16407;SDS011;8313;49.894;8.084;2022-08-26T08:07:31;11.30;;;10.30;;
16407;SDS011;8313;49.894;8.084;2022-08-26T08:09:57;12.47;;;11.03;;
16407;SDS011;8313;49.894;8.084;2022-08-26T08:12:22;12.03;;;10.73;;
16407;SDS011;8313;49.894;8.084;2022-08-26T08:14:48;12.70;;;11.60;;
16407;SDS011;8313;49.894;8.084;2022-08-26T08:17:15;11.93;;;9.93;;
16407;SDS011;8313;49.894;8.084;2022-08-26T08:19:41;12.27;;;11.10;;
16407;SDS011;8313;49.894;8.084;2022-08-26T08:22:07;11.33;;;10.23;;
16407;SDS011;8313;49.894;8.084;2022-08-26T08:24:33;11.67;;;10.57;;
16407;SDS011;8313;49.894;8.084;2022-08-26T08:26:59;11.63;;;10.50;;
16407;SDS011;8313;49.894;8.084;2022-08-26T08:29:26;12.30;;;11.10;;
16407;SDS011;8313;49.894;8.084;2022-08-26T08:31:54;12.90;;;11.27;;
16407;SDS011;8313;49.894;8.084;2022-08-26T08:34:20;13.13;;;11.83;;
16407;SDS011;8313;49.894;8.084;2022-08-26T08:36:47;13.20;;;12.03;;
16407;SDS011;8313;49.894;8.084;2022-08-26T08:39:13;13.30;;;11.10;;
16407;SDS011;8313;49.894;8.084;2022-08-26T08:41:47;11.70;;;10.60;;
16407;SDS011;8313;49.894;8.084;2022-08-26T08:44:24;12.40;;;11.27;;
16407;SDS011;8313;49.894;8.084;2022-08-26T08:46:52;15.70;;;12.07;;
16407;SDS011;8313;49.894;8.084;2022-08-26T08:49:22;11.67;;;10.57;;
16407;SDS011;8313;49.894;8.084;2022-08-26T08:52:27;12.57;;;11.47;;
16407;SDS011;8313;49.894;8.084;2022-08-26T08:54:51;13.00;;;11.63;;
16407;SDS011;8313;49.894;8.084;2022-08-26T08:57:24;12.03;;;10.93;;
16407;SDS011;8313;49.894;8.084;2022-08-26T09:00:04;11.60;;;10.50;;
16407;SDS011;8313;49.894;8.084;2022-08-26T09:02:41;19.63;;;12.20;;
16407;SDS011;8313;49.894;8.084;2022-08-26T09:07:44;10.90;;;9.90;;
16407;SDS011;8313;49.894;8.084;2022-08-26T09:13:04;12.40;;;10.43;;
16407;SDS011;8313;49.894;8.084;2022-08-26T09:21:31;11.70;;;10.60;;
16407;SDS011;8313;49.894;8.084;2022-08-26T09:23:57;12.07;;;10.97;;
16407;SDS011;8313;49.894;8.084;2022-08-26T09:26:25;11.23;;;10.23;;
16407;SDS011;8313;49.894;8.084;2022-08-26T09:29:04;12.43;;;11.33;;
16407;SDS011;8313;49.894;8.084;2022-08-26T09:31:36;11.77;;;10.77;;
16407;SDS011;8313;49.894;8.084;2022-08-26T09:34:04;11.70;;;10.60;;
16407;SDS011;8313;49.894;8.084;2022-08-26T09:36:37;11.25;;;10.35;;
16407;SDS011;8313;49.894;8.084;2022-08-26T09:39:05;12.35;;;11.00;;
16407;SDS011;8313;49.894;8.084;2022-08-26T09:42:10;12.70;;;11.50;;
16407;SDS011;8313;49.894;8.084;2022-08-26T09:44:52;12.50;;;11.20;;
16407;SDS011;8313;49.894;8.084;2022-08-26T09:47:36;12.95;;;11.65;;
16407;SDS011;8313;49.894;8.084;2022-08-26T09:55:43;11.98;;;10.77;;
16407;SDS011;8313;49.894;8.084;2022-08-26T09:58:11;12.52;;;11.32;;
16407;SDS011;8313;49.894;8.084;2022-08-26T10:00:41;11.85;;;10.63;;
16407;SDS011;8313;49.894;8.084;2022-08-26T10:03:28;12.60;;;11.52;;
16407;SDS011;8313;49.894;8.084;2022-08-26T10:08:31;12.05;;;10.95;;
16407;SDS011;8313;49.894;8.084;2022-08-26T10:11:04;11.52;;;10.50;;
16407;SDS011;8313;49.894;8.084;2022-08-26T10:13:42;11.80;;;10.63;;
16407;SDS011;8313;49.894;8.084;2022-08-26T10:16:24;13.18;;;11.38;;
16407;SDS011;8313;49.894;8.084;2022-08-26T10:21:34;11.25;;;10.15;;
16407;SDS011;8313;49.894;8.084;2022-08-26T10:24:16;11.18;;;10.18;;
16407;SDS011;8313;49.894;8.084;2022-08-26T10:29:38;10.73;;;9.82;;
16407;SDS011;8313;49.894;8.084;2022-08-26T10:32:10;11.52;;;10.50;;
16407;SDS011;8313;49.894;8.084;2022-08-26T10:34:48;11.35;;;10.32;;
16407;SDS011;8313;49.894;8.084;2022-08-26T10:37:18;11.45;;;10.45;;
16407;SDS011;8313;49.894;8.084;2022-08-26T10:42:39;11.07;;;9.95;;
16407;SDS011;8313;49.894;8.084;2022-08-26T10:45:10;11.82;;;10.60;;
16407;SDS011;8313;49.894;8.084;2022-08-26T10:47:54;11.77;;;10.85;;
16407;SDS011;8313;49.894;8.084;2022-08-26T10:50:32;11.38;;;10.38;;
16407;SDS011;8313;49.894;8.084;2022-08-26T10:55:32;13.25;;;10.70;;
16407;SDS011;8313;49.894;8.084;2022-08-26T11:00:55;15.98;;;11.27;;
16407;SDS011;8313;49.894;8.084;2022-08-26T11:03:57;10.82;;;9.85;;
16407;SDS011;8313;49.894;8.084;2022-08-26T11:06:33;12.95;;;11.65;;
16407;SDS011;8313;49.894;8.084;2022-08-26T11:09:00;12.15;;;10.93;;
16407;SDS011;8313;49.894;8.084;2022-08-26T11:22:08;12.98;;;11.68;;
16407;SDS011;8313;49.894;8.084;2022-08-26T11:27:03;12.27;;;11.18;;
16407;SDS011;8313;49.894;8.084;2022-08-26T11:32:26;12.30;;;11.20;;
16407;SDS011;8313;49.894;8.084;2022-08-26T11:40:24;13.00;;;11.90;;
16407;SDS011;8313;49.894;8.084;2022-08-26T11:45:56;15.02;;;13.38;;
16407;SDS011;8313;49.894;8.084;2022-08-26T11:50:54;14.35;;;12.95;;
16407;SDS011;8313;49.894;8.084;2022-08-26T11:53:21;16.13;;;12.95;;
16407;SDS011;8313;49.894;8.084;2022-08-26T11:55:48;15.43;;;13.95;;
16407;SDS011;8313;49.894;8.084;2022-08-26T11:58:16;19.48;;;14.02;;
16407;SDS011;8313;49.894;8.084;2022-08-26T12:03:18;17.13;;;15.40;;
16407;SDS011;8313;49.894;8.084;2022-08-26T12:05:48;17.17;;;15.38;;
16407;SDS011;8313;49.894;8.084;2022-08-26T12:08:18;18.27;;;16.35;;
16407;SDS011;8313;49.894;8.084;2022-08-26T12:11:00;18.77;;;16.92;;
16407;SDS011;8313;49.894;8.084;2022-08-26T12:13:28;20.02;;;18.00;;
16407;SDS011;8313;49.894;8.084;2022-08-26T12:15:54;20.17;;;18.17;;
16407;SDS011;8313;49.894;8.084;2022-08-26T12:18:23;20.55;;;18.50;;
16407;SDS011;8313;49.894;8.084;2022-08-26T12:20:54;19.98;;;18.00;;
16407;SDS011;8313;49.894;8.084;2022-08-26T12:26:20;22.13;;;19.92;;
16407;SDS011;8313;49.894;8.084;2022-08-26T12:28:48;20.35;;;18.30;;
16407;SDS011;8313;49.894;8.084;2022-08-26T12:31:21;22.60;;;20.20;;
16407;SDS011;8313;49.894;8.084;2022-08-26T12:33:57;23.35;;;20.50;;
16407;SDS011;8313;49.894;8.084;2022-08-26T12:36:26;23.52;;;21.13;;
16407;SDS011;8313;49.894;8.084;2022-08-26T12:39:04;16.17;;;14.55;;
16407;SDS011;8313;49.894;8.084;2022-08-26T12:44:05;23.55;;;16.25;;
16407;SDS011;8313;49.894;8.084;2022-08-26T12:46:31;23.13;;;13.98;;
16407;SDS011;8313;49.894;8.084;2022-08-26T12:48:57;22.13;;;16.52;;
16407;SDS011;8313;49.894;8.084;2022-08-26T12:51:28;22.15;;;16.33;;
16407;SDS011;8313;49.894;8.084;2022-08-26T12:53:56;15.73;;;13.55;;
16407;SDS011;8313;49.894;8.084;2022-08-26T13:01:44;16.80;;;14.88;;
16407;SDS011;8313;49.894;8.084;2022-08-26T13:04:30;21.95;;;15.85;;
16407;SDS011;8313;49.894;8.084;2022-08-26T13:09:41;14.55;;;12.18;;
16407;SDS011;8313;49.894;8.084;2022-08-26T13:12:06;13.55;;;10.90;;
16407;SDS011;8313;49.894;8.084;2022-08-26T13:14:32;12.65;;;10.60;;
16407;SDS011;8313;49.894;8.084;2022-08-26T13:16:58;10.85;;;9.77;;
16407;SDS011;8313;49.894;8.084;2022-08-26T13:19:24;13.30;;;9.52;;
16407;SDS011;8313;49.894;8.084;2022-08-26T13:21:59;11.23;;;9.55;;
16407;SDS011;8313;49.894;8.084;2022-08-26T13:27:02;11.25;;;10.07;;
16407;SDS011;8313;49.894;8.084;2022-08-26T13:29:30;11.05;;;9.90;;
16407;SDS011;8313;49.894;8.084;2022-08-26T13:31:56;10.95;;;9.95;;
16407;SDS011;8313;49.894;8.084;2022-08-26T13:34:22;11.20;;;10.13;;
16407;SDS011;8313;49.894;8.084;2022-08-26T13:36:50;12.40;;;11.18;;
16407;SDS011;8313;49.894;8.084;2022-08-26T13:39:18;12.43;;;11.23;;
16407;SDS011;8313;49.894;8.084;2022-08-26T13:41:45;11.98;;;10.50;;
16407;SDS011;8313;49.894;8.084;2022-08-26T13:44:12;11.35;;;10.25;;
16407;SDS011;8313;49.894;8.084;2022-08-26T13:46:37;11.73;;;10.52;;
16407;SDS011;8313;49.894;8.084;2022-08-26T13:49:04;13.18;;;11.88;;
16407;SDS011;8313;49.894;8.084;2022-08-26T13:51:30;10.93;;;9.82;;
16407;SDS011;8313;49.894;8.084;2022-08-26T13:53:56;12.27;;;10.40;;
16407;SDS011;8313;49.894;8.084;2022-08-26T13:56:23;12.40;;;10.57;;
16407;SDS011;8313;49.894;8.084;2022-08-26T13:58:51;12.07;;;10.10;;
16407;SDS011;8313;49.894;8.084;2022-08-26T14:01:17;10.43;;;9.27;;
16407;SDS011;8313;49.894;8.084;2022-08-26T14:03:43;11.32;;;10.27;;
16407;SDS011;8313;49.894;8.084;2022-08-26T14:06:10;11.88;;;10.43;;
16407;SDS011;8313;49.894;8.084;2022-08-26T14:08:36;13.43;;;10.65;;
16407;SDS011;8313;49.894;8.084;2022-08-26T14:11:02;12.98;;;11.60;;
16407;SDS011;8313;49.894;8.084;2022-08-26T14:13:28;13.82;;;12.43;;
16407;SDS011;8313;49.894;8.084;2022-08-26T14:15:54;13.40;;;12.10;;
16407;SDS011;8313;49.894;8.084;2022-08-26T14:18:25;17.85;;;13.43;;
16407;SDS011;8313;49.894;8.084;2022-08-26T14:20:53;13.45;;;12.13;;
16407;SDS011;8313;49.894;8.084;2022-08-26T14:23:19;15.00;;;13.40;;
16407;SDS011;8313;49.894;8.084;2022-08-26T14:25:46;13.48;;;12.07;;
16407;SDS011;8313;49.894;8.084;2022-08-26T14:28:12;15.55;;;14.05;;
16407;SDS011;8313;49.894;8.084;2022-08-26T14:30:41;14.93;;;12.82;;
16407;SDS011;8313;49.894;8.084;2022-08-26T14:33:11;17.23;;;14.05;;
16407;SDS011;8313;49.894;8.084;2022-08-26T14:35:38;16.30;;;14.57;;
16407;SDS011;8313;49.894;8.084;2022-08-26T14:38:04;16.08;;;14.50;;
16407;SDS011;8313;49.894;8.084;2022-08-26T14:40:30;17.27;;;15.13;;
16407;SDS011;8313;49.894;8.084;2022-08-26T14:42:56;17.40;;;15.50;;
16407;SDS011;8313;49.894;8.084;2022-08-26T14:45:24;19.58;;;17.48;;
16407;SDS011;8313;49.894;8.084;2022-08-26T14:47:52;19.90;;;17.80;;
16407;SDS011;8313;49.894;8.084;2022-08-26T14:50:20;23.88;;;20.13;;
16407;SDS011;8313;49.894;8.084;2022-08-26T14:52:49;23.42;;;19.60;;
16407;SDS011;8313;49.894;8.084;2022-08-26T14:55:34;25.02;;;18.63;;
16407;SDS011;8313;49.894;8.084;2022-08-26T14:58:03;20.70;;;18.58;;
16407;SDS011;8313;49.894;8.084;2022-08-26T15:00:29;22.65;;;20.35;;
16407;SDS011;8313;49.894;8.084;2022-08-26T15:02:55;18.90;;;16.90;;
16407;SDS011;8313;49.894;8.084;2022-08-26T15:05:21;18.33;;;16.42;;
16407;SDS011;8313;49.894;8.084;2022-08-26T15:07:46;20.77;;;17.77;;
16407;SDS011;8313;49.894;8.084;2022-08-26T15:10:13;18.15;;;16.05;;
16407;SDS011;8313;49.894;8.084;2022-08-26T15:12:39;17.45;;;15.65;;
16407;SDS011;8313;49.894;8.084;2022-08-26T15:15:06;18.00;;;15.60;;
16407;SDS011;8313;49.894;8.084;2022-08-26T15:17:34;17.80;;;15.47;;
16407;SDS011;8313;49.894;8.084;2022-08-26T15:20:00;18.03;;;15.90;;
16407;SDS011;8313;49.894;8.084;2022-08-26T15:22:26;19.13;;;16.10;;
16407;SDS011;8313;49.894;8.084;2022-08-26T15:24:52;17.60;;;15.70;;
16407;SDS011;8313;49.894;8.084;2022-08-26T15:27:18;22.43;;;17.53;;
16407;SDS011;8313;49.894;8.084;2022-08-26T15:29:44;20.33;;;17.17;;
16407;SDS011;8313;49.894;8.084;2022-08-26T15:32:10;21.70;;;18.80;;
16407;SDS011;8313;49.894;8.084;2022-08-26T15:34:36;24.15;;;20.48;;
16407;SDS011;8313;49.894;8.084;2022-08-26T15:37:02;22.30;;;17.93;;
16407;SDS011;8313;49.894;8.084;2022-08-26T15:39:29;21.73;;;18.73;;
16407;SDS011;8313;49.894;8.084;2022-08-26T15:41:55;26.10;;;19.37;;
16407;SDS011;8313;49.894;8.084;2022-08-26T15:44:21;23.87;;;19.80;;
16407;SDS011;8313;49.894;8.084;2022-08-26T15:46:47;22.23;;;18.90;;
16407;SDS011;8313;49.894;8.084;2022-08-26T15:49:14;22.20;;;18.57;;
16407;SDS011;8313;49.894;8.084;2022-08-26T15:51:40;21.23;;;18.73;;
16407;SDS011;8313;49.894;8.084;2022-08-26T15:54:07;24.40;;;18.90;;
16407;SDS011;8313;49.894;8.084;2022-08-26T15:56:34;22.13;;;19.77;;
16407;SDS011;8313;49.894;8.084;2022-08-26T15:59:02;20.37;;;18.17;;
16407;SDS011;8313;49.894;8.084;2022-08-26T16:01:29;19.77;;;17.77;;
16407;SDS011;8313;49.894;8.084;2022-08-26T16:03:56;23.47;;;19.00;;
16407;SDS011;8313;49.894;8.084;2022-08-26T16:06:28;23.30;;;17.73;;
16407;SDS011;8313;49.894;8.084;2022-08-26T16:08:55;19.30;;;17.40;;
16407;SDS011;8313;49.894;8.084;2022-08-26T16:11:21;19.73;;;17.67;;
16407;SDS011;8313;49.894;8.084;2022-08-26T16:13:48;19.20;;;16.77;;
16407;SDS011;8313;49.894;8.084;2022-08-26T16:16:14;18.87;;;17.00;;